No1 Tokuyama — JK5318 — position and weather

sailwx.info

Track history (hours):
 
Tides and Currents Weather Stations Pressure Air Temp Water Temp Dewpoint Dewpoint Depression Visibility Wind Speed Wind Dir Waves Ship Positions

No1 Tokuyama

Last reported at 2017-Jul-22 11:01 UTC. Time now 2017-Jul-24 22:40 UTC.
Position N 34°33' E 134°47'.

Length 110 m; draft 6.6 m.

Type: Cargo ship. MMSI: 431400487.

Date/timePositionNaut miles runAvg speedWind from/ knotsBaromVisibWave heightAir tempDewpointWater temp
2017-Jul-22 11:01N 34°33' E 134°47'216.5
2017-Jul-22 10:54N 34°34' E 134°49'717.0
2017-Jul-22 10:29N 34°37' E 134°57'715.3
2017-Jul-22 10:00N 34°36' E 135°06'612.6
2017-Jul-22 09:30N 34°37' E 135°13'4 8.4
2017-Jul-22 09:00N 34°40' E 135°15'2 3.3
2017-Jul-22 08:30N 34°42' E 135°14'0 0.0
2017-Jul-22 07:55N 34°42' E 135°14'0 0.0
2017-Jul-22 07:25N 34°42' E 135°14'0 0.0
2017-Jul-22 06:56N 34°42' E 135°14'0 0.0
2017-Jul-22 06:25N 34°42' E 135°14'0 0.0
2017-Jul-22 05:56N 34°42' E 135°14'0 0.0
2017-Jul-22 05:20N 34°42' E 135°14'0 0.0
2017-Jul-22 04:49N 34°42' E 135°14'0 0.0
2017-Jul-22 04:25N 34°42' E 135°14'0 0.0
2017-Jul-22 03:55N 34°42' E 135°14'0 0.0
2017-Jul-22 03:19N 34°42' E 135°14'0 0.0
2017-Jul-22 02:55N 34°42' E 135°14'0 0.0
2017-Jul-22 02:25N 34°42' E 135°14'0 0.0
2017-Jul-22 01:56N 34°42' E 135°14'0 0.0
2017-Jul-22 01:26N 34°42' E 135°14'0 0.0
2017-Jul-22 00:55N 34°42' E 135°14'0 0.0
2017-Jul-22 00:25N 34°42' E 135°14'0 0.0
2017-Jul-21 23:55N 34°42' E 135°14'3 4.4
2017-Jul-21 23:13N 34°39' E 135°16'210.2
2017-Jul-21 23:00N 34°37' E 135°17'2 3.0
2017-Jul-21 22:18N 34°38' E 135°20'0 0.0
2017-Jul-21 22:00N 34°38' E 135°20'0 0.0
2017-Jul-21 21:30N 34°38' E 135°20'0 0.0
2017-Jul-21 21:00N 34°38' E 135°20'0 0.0
2017-Jul-21 20:24N 34°38' E 135°20'0 0.0
2017-Jul-21 19:54N 34°38' E 135°20'0 0.0
2017-Jul-21 19:30N 34°38' E 135°20'0 0.0
2017-Jul-21 19:00N 34°38' E 135°20'0 0.1
2017-Jul-21 18:30N 34°38' E 135°20'0 0.1
2017-Jul-21 18:00N 34°38' E 135°20'0 0.1
2017-Jul-21 17:30N 34°38' E 135°20'0 0.1
2017-Jul-21 17:00N 34°38' E 135°20'0 0.0
2017-Jul-21 16:30N 34°38' E 135°20'0 0.0
2017-Jul-21 16:00N 34°38' E 135°20'0 0.0
2017-Jul-21 15:24N 34°38' E 135°20'0 0.0
2017-Jul-21 15:00N 34°38' E 135°20'0 0.0
2017-Jul-21 14:30N 34°38' E 135°20'0 0.0
2017-Jul-21 14:00N 34°38' E 135°20'0 0.0
2017-Jul-21 13:18N 34°38' E 135°20'0 0.1
2017-Jul-21 13:00N 34°38' E 135°20'0 0.0
2017-Jul-21 12:30N 34°38' E 135°20'0 0.0
2017-Jul-21 12:00N 34°38' E 135°20'0 0.0
2017-Jul-21 11:30N 34°38' E 135°20'0 0.0
2017-Jul-21 10:54N 34°38' E 135°20'0 0.0
2017-Jul-21 10:30N 34°38' E 135°20'0 0.0
2017-Jul-21 10:00N 34°38' E 135°20'0 0.0
2017-Jul-21 09:30N 34°38' E 135°20'0 0.0
2017-Jul-21 09:00N 34°38' E 135°20'0 0.0
2017-Jul-21 08:30N 34°38' E 135°20'0 0.0
2017-Jul-21 08:00N 34°38' E 135°20'0 0.0
2017-Jul-21 07:18N 34°38' E 135°20'0 0.0
2017-Jul-21 07:00N 34°38' E 135°20'0 0.0
2017-Jul-21 06:30N 34°38' E 135°20'1 2.9
2017-Jul-21 06:00N 34°39' E 135°22'4 8.2
2017-Jul-21 05:30N 34°39' E 135°27'0 0.1
2017-Jul-21 04:50N 34°39' E 135°27'0 0.0
2017-Jul-21 04:26N 34°39' E 135°27'0 0.0
2017-Jul-21 03:32N 34°39' E 135°27'0 0.0
2017-Jul-21 03:26N 34°39' E 135°27'0 0.0
2017-Jul-21 02:50N 34°39' E 135°27'0 0.0
2017-Jul-21 02:26N 34°39' E 135°27'0 0.0
2017-Jul-21 01:56N 34°39' E 135°27'0 0.0
2017-Jul-21 01:26N 34°39' E 135°27'0 0.0
2017-Jul-21 00:50N 34°39' E 135°27'0 0.0
2017-Jul-21 00:26N 34°39' E 135°27'0 0.0
2017-Jul-20 23:56N 34°39' E 135°27'0 0.0
2017-Jul-20 23:26N 34°39' E 135°27'0 0.0
2017-Jul-20 22:56N 34°39' E 135°27'0 0.0
2017-Jul-20 22:30N 34°39' E 135°27'2 3.7
2017-Jul-20 22:00N 34°39' E 135°24'3 5.2
2017-Jul-20 21:30N 34°37' E 135°22'0 0.1
2017-Jul-20 20:59N 34°37' E 135°22'0 0.0
2017-Jul-20 20:11N 34°37' E 135°22'0 0.0
2017-Jul-20 19:59N 34°37' E 135°22'0 0.0
2017-Jul-20 19:29N 34°37' E 135°22'0 0.0
2017-Jul-20 18:59N 34°37' E 135°22'0 0.0
2017-Jul-20 18:17N 34°37' E 135°22'0 0.0
2017-Jul-20 17:59N 34°37' E 135°22'0 0.0
2017-Jul-20 17:17N 34°37' E 135°22'0 0.0
2017-Jul-20 16:53N 34°37' E 135°22'0 0.0
2017-Jul-20 16:29N 34°37' E 135°22'0 0.0
2017-Jul-20 15:53N 34°37' E 135°22'0 0.1
2017-Jul-20 15:23N 34°37' E 135°22'1 3.0
2017-Jul-20 15:00N 34°36' E 135°21'1212.3
2017-Jul-20 14:00N 34°35' E 135°06'713.0
2017-Jul-20 13:30N 34°37' E 134°59'  
Track history (hours):
 
Tides and Currents Weather Stations Pressure Air Temp Water Temp Dewpoint Dewpoint Depression Visibility Wind Speed Wind Dir Waves Ship Positions

No1 Tokuyama

Last reported at 2017-Jul-22 11:01 UTC. Time now 2017-Jul-24 22:40 UTC.
Position N 34°33' E 134°47'.

Length 110 m; draft 6.6 m.

Type: Cargo ship. MMSI: 431400487.

Date/timePositionNaut miles runAvg speedWind from/ knotsBaromVisibWave heightAir tempDewpointWater temp
2017-Jul-22 11:01N 34°33' E 134°47'216.5
2017-Jul-22 10:54N 34°34' E 134°49'717.0
2017-Jul-22 10:29N 34°37' E 134°57'715.3
2017-Jul-22 10:00N 34°36' E 135°06'612.6
2017-Jul-22 09:30N 34°37' E 135°13'4 8.4
2017-Jul-22 09:00N 34°40' E 135°15'2 3.3
2017-Jul-22 08:30N 34°42' E 135°14'0 0.0
2017-Jul-22 07:55N 34°42' E 135°14'0 0.0
2017-Jul-22 07:25N 34°42' E 135°14'0 0.0
2017-Jul-22 06:56N 34°42' E 135°14'0 0.0
2017-Jul-22 06:25N 34°42' E 135°14'0 0.0
2017-Jul-22 05:56N 34°42' E 135°14'0 0.0
2017-Jul-22 05:20N 34°42' E 135°14'0 0.0
2017-Jul-22 04:49N 34°42' E 135°14'0 0.0
2017-Jul-22 04:25N 34°42' E 135°14'0 0.0
2017-Jul-22 03:55N 34°42' E 135°14'0 0.0
2017-Jul-22 03:19N 34°42' E 135°14'0 0.0
2017-Jul-22 02:55N 34°42' E 135°14'0 0.0
2017-Jul-22 02:25N 34°42' E 135°14'0 0.0
2017-Jul-22 01:56N 34°42' E 135°14'0 0.0
2017-Jul-22 01:26N 34°42' E 135°14'0 0.0
2017-Jul-22 00:55N 34°42' E 135°14'0 0.0
2017-Jul-22 00:25N 34°42' E 135°14'0 0.0
2017-Jul-21 23:55N 34°42' E 135°14'3 4.4
2017-Jul-21 23:13N 34°39' E 135°16'210.2
2017-Jul-21 23:00N 34°37' E 135°17'2 3.0
2017-Jul-21 22:18N 34°38' E 135°20'0 0.0
2017-Jul-21 22:00N 34°38' E 135°20'0 0.0
2017-Jul-21 21:30N 34°38' E 135°20'0 0.0
2017-Jul-21 21:00N 34°38' E 135°20'0 0.0
2017-Jul-21 20:24N 34°38' E 135°20'0 0.0
2017-Jul-21 19:54N 34°38' E 135°20'0 0.0
2017-Jul-21 19:30N 34°38' E 135°20'0 0.0
2017-Jul-21 19:00N 34°38' E 135°20'0 0.1
2017-Jul-21 18:30N 34°38' E 135°20'0 0.1
2017-Jul-21 18:00N 34°38' E 135°20'0 0.1
2017-Jul-21 17:30N 34°38' E 135°20'0 0.1
2017-Jul-21 17:00N 34°38' E 135°20'0 0.0
2017-Jul-21 16:30N 34°38' E 135°20'0 0.0
2017-Jul-21 16:00N 34°38' E 135°20'0 0.0
2017-Jul-21 15:24N 34°38' E 135°20'0 0.0
2017-Jul-21 15:00N 34°38' E 135°20'0 0.0
2017-Jul-21 14:30N 34°38' E 135°20'0 0.0
2017-Jul-21 14:00N 34°38' E 135°20'0 0.0
2017-Jul-21 13:18N 34°38' E 135°20'0 0.1
2017-Jul-21 13:00N 34°38' E 135°20'0 0.0
2017-Jul-21 12:30N 34°38' E 135°20'0 0.0
2017-Jul-21 12:00N 34°38' E 135°20'0 0.0
2017-Jul-21 11:30N 34°38' E 135°20'0 0.0
2017-Jul-21 10:54N 34°38' E 135°20'0 0.0
2017-Jul-21 10:30N 34°38' E 135°20'0 0.0
2017-Jul-21 10:00N 34°38' E 135°20'0 0.0
2017-Jul-21 09:30N 34°38' E 135°20'0 0.0
2017-Jul-21 09:00N 34°38' E 135°20'0 0.0
2017-Jul-21 08:30N 34°38' E 135°20'0 0.0
2017-Jul-21 08:00N 34°38' E 135°20'0 0.0
2017-Jul-21 07:18N 34°38' E 135°20'0 0.0
2017-Jul-21 07:00N 34°38' E 135°20'0 0.0
2017-Jul-21 06:30N 34°38' E 135°20'1 2.9
2017-Jul-21 06:00N 34°39' E 135°22'4 8.2
2017-Jul-21 05:30N 34°39' E 135°27'0 0.1
2017-Jul-21 04:50N 34°39' E 135°27'0 0.0
2017-Jul-21 04:26N 34°39' E 135°27'0 0.0
2017-Jul-21 03:32N 34°39' E 135°27'0 0.0
2017-Jul-21 03:26N 34°39' E 135°27'0 0.0
2017-Jul-21 02:50N 34°39' E 135°27'0 0.0
2017-Jul-21 02:26N 34°39' E 135°27'0 0.0
2017-Jul-21 01:56N 34°39' E 135°27'0 0.0
2017-Jul-21 01:26N 34°39' E 135°27'0 0.0
2017-Jul-21 00:50N 34°39' E 135°27'0 0.0
2017-Jul-21 00:26N 34°39' E 135°27'0 0.0
2017-Jul-20 23:56N 34°39' E 135°27'0 0.0
2017-Jul-20 23:26N 34°39' E 135°27'0 0.0
2017-Jul-20 22:56N 34°39' E 135°27'0 0.0
2017-Jul-20 22:30N 34°39' E 135°27'2 3.7
2017-Jul-20 22:00N 34°39' E 135°24'3 5.2
2017-Jul-20 21:30N 34°37' E 135°22'0 0.1
2017-Jul-20 20:59N 34°37' E 135°22'0 0.0
2017-Jul-20 20:11N 34°37' E 135°22'0 0.0
2017-Jul-20 19:59N 34°37' E 135°22'0 0.0
2017-Jul-20 19:29N 34°37' E 135°22'0 0.0
2017-Jul-20 18:59N 34°37' E 135°22'0 0.0
2017-Jul-20 18:17N 34°37' E 135°22'0 0.0
2017-Jul-20 17:59N 34°37' E 135°22'0 0.0
2017-Jul-20 17:17N 34°37' E 135°22'0 0.0
2017-Jul-20 16:53N 34°37' E 135°22'0 0.0
2017-Jul-20 16:29N 34°37' E 135°22'0 0.0
2017-Jul-20 15:53N 34°37' E 135°22'0 0.1
2017-Jul-20 15:23N 34°37' E 135°22'1 3.0
2017-Jul-20 15:00N 34°36' E 135°21'1212.3
2017-Jul-20 14:00N 34°35' E 135°06'713.0
2017-Jul-20 13:30N 34°37' E 134°59'  

Dump ship's entire track history